createdAt,value
2023-04-15T00:01:11.989Z,58.80
2023-04-15T00:03:39.789Z,60.90
2023-04-15T00:06:07.083Z,58.00
2023-04-15T00:08:34.380Z,58.00
2023-04-15T00:11:03.277Z,56.60
2023-04-15T00:13:30.582Z,56.60
2023-04-15T00:15:57.546Z,56.10
2023-04-15T00:18:25.298Z,54.60
2023-04-15T00:20:52.761Z,53.20
2023-04-15T00:23:19.778Z,56.10
2023-04-15T00:25:47.106Z,53.80
2023-04-15T00:28:14.406Z,52.70
2023-04-15T00:30:42.994Z,51.20
2023-04-15T00:33:10.382Z,52.20
2023-04-15T00:35:37.716Z,52.70
2023-04-15T00:38:06.204Z,51.60
2023-04-15T00:40:33.563Z,50.20
2023-04-15T00:43:00.759Z,50.10
2023-04-15T00:45:28.444Z,49.80
2023-04-15T00:47:56.100Z,48.60
2023-04-15T00:50:23.080Z,49.30
2023-04-15T00:52:49.935Z,49.20
2023-04-15T00:55:16.993Z,46.90
2023-04-15T00:57:44.882Z,47.10
2023-04-15T01:00:12.256Z,47.60
2023-04-15T01:02:39.652Z,45.00
2023-04-15T01:05:07.890Z,46.30
2023-04-15T01:07:34.838Z,47.50
2023-04-15T01:10:04.267Z,44.60
2023-04-15T01:12:33.349Z,45.30
2023-04-15T01:15:00.520Z,44.60
2023-04-15T01:17:27.528Z,46.80
2023-04-15T01:19:58.141Z,46.60
2023-04-15T01:22:26.910Z,45.30
2023-04-15T01:25:10.057Z,45.60
2023-04-15T01:27:40.186Z,44.90
2023-04-15T01:30:08.819Z,44.10
2023-04-15T01:32:35.916Z,43.30
2023-04-15T01:35:03.058Z,43.30
2023-04-15T01:37:30.319Z,42.60
2023-04-15T01:39:58.253Z,41.70
2023-04-15T01:42:25.257Z,42.90
2023-04-15T01:44:52.329Z,42.30
2023-04-15T01:47:19.455Z,41.20
2023-04-15T01:49:47.699Z,41.50
2023-04-15T01:52:14.594Z,40.70
2023-04-15T01:54:41.854Z,40.30
2023-04-15T01:57:08.719Z,40.20
2023-04-15T01:59:36.472Z,40.00
2023-04-15T02:02:03.461Z,39.10
2023-04-15T02:04:30.568Z,38.60
2023-04-15T02:07:00.880Z,39.10
2023-04-15T02:09:28.093Z,38.90
2023-04-15T02:11:54.940Z,39.40
2023-04-15T02:14:22.313Z,38.00
2023-04-15T02:16:49.293Z,38.10
2023-04-15T02:19:16.587Z,37.40
2023-04-15T02:21:43.574Z,37.80
2023-04-15T02:24:12.332Z,38.20
2023-04-15T02:26:41.300Z,35.40
2023-04-15T02:29:08.320Z,37.30
2023-04-15T02:31:38.252Z,36.50
2023-04-15T02:34:05.242Z,38.60
2023-04-15T02:36:32.174Z,35.30
2023-04-15T02:38:59.454Z,36.00
2023-04-15T02:41:28.627Z,34.80
2023-04-15T02:43:55.978Z,35.20
2023-04-15T02:46:23.314Z,34.10
2023-04-15T02:48:50.705Z,34.60
2023-04-15T02:51:22.902Z,35.10
2023-04-15T02:53:51.077Z,33.20
2023-04-15T02:56:20.060Z,33.20
2023-04-15T02:58:47.457Z,34.40
2023-04-15T03:01:14.970Z,34.00
2023-04-15T03:03:42.466Z,32.90
2023-04-15T03:06:09.586Z,33.60
2023-04-15T03:08:37.276Z,32.40
2023-04-15T03:11:05.418Z,33.50
2023-04-15T03:13:33.317Z,32.30
2023-04-15T03:16:04.286Z,32.50
2023-04-15T03:18:31.936Z,32.30
2023-04-15T03:21:01.560Z,32.50
2023-04-15T03:23:31.668Z,32.00
2023-04-15T03:26:00.122Z,31.90
2023-04-15T03:28:29.777Z,31.00
2023-04-15T03:31:00.443Z,30.50
2023-04-15T03:33:27.513Z,30.30
2023-04-15T03:35:54.608Z,30.10
2023-04-15T03:38:21.754Z,31.60
2023-04-15T03:40:48.774Z,31.30
2023-04-15T03:43:15.831Z,29.70
2023-04-15T03:45:42.727Z,28.50
2023-04-15T03:48:17.068Z,29.50
2023-04-15T03:50:44.508Z,29.10
2023-04-15T03:53:11.420Z,30.10
2023-04-15T03:55:38.257Z,28.60
2023-04-15T03:58:05.339Z,29.10
2023-04-15T04:00:32.308Z,28.00
2023-04-15T04:02:59.472Z,27.00
2023-04-15T04:05:26.440Z,28.50
2023-04-15T04:07:53.311Z,28.70
2023-04-15T04:10:20.289Z,26.80
2023-04-15T04:12:47.232Z,28.40
2023-04-15T04:15:14.503Z,27.50
2023-04-15T04:17:41.703Z,26.90
2023-04-15T04:20:09.519Z,28.20
2023-04-15T04:22:40.345Z,27.00
2023-04-15T04:25:08.937Z,27.00
2023-04-15T04:27:36.512Z,27.50
2023-04-15T04:30:03.866Z,26.90
2023-04-15T04:32:30.955Z,26.30
2023-04-15T04:34:57.858Z,26.10
2023-04-15T04:37:25.239Z,26.30
2023-04-15T04:39:52.247Z,26.20
2023-04-15T04:42:19.272Z,26.30
2023-04-15T04:44:46.728Z,25.80
2023-04-15T04:47:14.156Z,24.70
2023-04-15T04:49:41.362Z,24.60
2023-04-15T04:52:09.265Z,25.90
2023-04-15T04:54:36.474Z,24.20
2023-04-15T04:57:03.453Z,25.20
2023-04-15T04:59:30.449Z,24.80
2023-04-15T05:01:57.941Z,24.80
2023-04-15T05:04:26.595Z,25.40
2023-04-15T05:06:53.504Z,25.90
2023-04-15T05:09:20.451Z,24.20
2023-04-15T05:11:47.300Z,23.70
2023-04-15T05:14:14.196Z,23.50
2023-04-15T05:16:41.113Z,23.70
2023-04-15T05:19:08.425Z,23.00
2023-04-15T05:21:36.641Z,21.90
2023-04-15T05:24:05.843Z,22.00
2023-04-15T05:26:32.811Z,22.80
2023-04-15T05:28:59.880Z,22.10
2023-04-15T05:31:27.278Z,22.60
2023-04-15T05:33:54.345Z,22.60
2023-04-15T05:36:21.508Z,22.70
2023-04-15T05:38:48.385Z,22.60
2023-04-15T05:41:18.357Z,22.40
2023-04-15T05:43:46.628Z,21.30
2023-04-15T05:46:13.632Z,21.70
2023-04-15T05:48:40.612Z,22.30
2023-04-15T05:51:07.664Z,21.80
2023-04-15T05:53:34.503Z,20.90
2023-04-15T05:56:01.762Z,21.60
2023-04-15T05:58:28.736Z,21.00
2023-04-15T06:00:55.954Z,22.30
2023-04-15T06:03:23.204Z,22.50
2023-04-15T06:05:50.353Z,21.30
2023-04-15T06:08:17.274Z,21.00
2023-04-15T06:10:44.248Z,21.40
2023-04-15T06:13:11.192Z,21.00
2023-04-15T06:15:38.144Z,21.00
2023-04-15T06:18:05.573Z,20.90
2023-04-15T06:20:32.847Z,20.00
2023-04-15T06:22:59.802Z,20.70
2023-04-15T06:25:27.045Z,20.10
2023-04-15T06:27:53.985Z,19.50
2023-04-15T06:30:22.322Z,19.30
2023-04-15T06:32:51.198Z,19.30
2023-04-15T06:35:18.203Z,19.60
2023-04-15T06:37:45.067Z,20.20
2023-04-15T06:40:12.683Z,18.90
2023-04-15T06:42:39.755Z,19.40
2023-04-15T06:45:07.414Z,19.00
2023-04-15T06:47:34.630Z,18.40
2023-04-15T06:50:02.147Z,18.50
2023-04-15T06:52:30.265Z,18.30
2023-04-15T06:55:00.011Z,18.30
2023-04-15T06:57:29.705Z,18.10
2023-04-15T06:59:58.465Z,18.50
2023-04-15T07:02:28.278Z,17.60
2023-04-15T07:04:58.004Z,17.90
2023-04-15T07:07:27.209Z,17.60
2023-04-15T07:09:56.210Z,17.10
2023-04-15T07:12:25.289Z,16.90
2023-04-15T07:14:53.318Z,17.60
2023-04-15T07:17:23.508Z,18.00
2023-04-15T07:19:52.630Z,17.00
2023-04-15T07:22:21.651Z,16.30
2023-04-15T07:24:50.604Z,16.50
2023-04-15T07:27:19.441Z,17.00
2023-04-15T07:29:48.040Z,17.00
2023-04-15T07:32:17.280Z,16.70
2023-04-15T07:34:48.746Z,16.30
2023-04-15T07:37:18.808Z,16.30
2023-04-15T07:39:48.376Z,16.70
2023-04-15T07:42:17.136Z,16.70
2023-04-15T07:44:46.159Z,16.20
2023-04-15T07:47:14.880Z,15.60
2023-04-15T07:49:44.929Z,16.50
2023-04-15T07:52:13.052Z,16.00
2023-04-15T07:54:44.457Z,15.70
2023-04-15T07:57:13.225Z,14.90
2023-04-15T07:59:42.902Z,15.70
2023-04-15T08:02:12.717Z,15.10
2023-04-15T08:04:42.094Z,15.70
2023-04-15T08:07:11.248Z,15.30
2023-04-15T08:09:40.064Z,15.30
2023-04-15T08:12:10.244Z,14.80
2023-04-15T08:14:39.653Z,15.80
2023-04-15T08:17:08.183Z,14.20
2023-04-15T08:19:37.414Z,14.50
2023-04-15T08:22:06.723Z,14.80
2023-04-15T08:24:44.395Z,14.90
2023-04-15T08:27:13.241Z,14.10
2023-04-15T08:29:46.974Z,14.70
2023-04-15T08:32:14.133Z,14.10
2023-04-15T08:34:41.224Z,13.30
2023-04-15T08:37:08.488Z,14.30
2023-04-15T08:39:35.525Z,14.10
2023-04-15T08:42:05.854Z,13.30
2023-04-15T08:44:37.211Z,13.00
2023-04-15T08:47:07.792Z,13.00
2023-04-15T08:49:39.456Z,13.30
2023-04-15T08:52:06.865Z,12.60
2023-04-15T08:54:34.602Z,12.90
2023-04-15T08:57:02.776Z,12.80
2023-04-15T08:59:33.002Z,13.00
2023-04-15T09:02:00.247Z,12.00
2023-04-15T09:04:28.943Z,11.90
2023-04-15T09:06:55.884Z,11.60
2023-04-15T09:09:23.038Z,12.30
2023-04-15T09:11:51.818Z,11.40
2023-04-15T09:14:18.681Z,11.40
2023-04-15T09:17:03.441Z,11.40
2023-04-15T09:19:33.823Z,10.60
2023-04-15T09:22:01.617Z,11.30
2023-04-15T09:24:40.136Z,10.50
2023-04-15T09:27:07.502Z,10.20
2023-04-15T09:29:34.871Z,10.70
2023-04-15T09:32:13.163Z,11.00
2023-04-15T09:34:40.093Z,10.50
2023-04-15T09:37:08.155Z,10.30
2023-04-15T09:39:52.322Z,10.50
2023-04-15T09:42:27.051Z,9.90
2023-04-15T09:44:54.221Z,9.90
2023-04-15T09:47:29.236Z,9.30
2023-04-15T09:50:00.731Z,9.50
2023-04-15T09:52:28.933Z,9.40
2023-04-15T09:54:59.253Z,9.20
2023-04-15T09:57:34.893Z,9.20
2023-04-15T10:00:02.136Z,8.60
2023-04-15T10:02:31.319Z,9.10
2023-04-15T10:04:59.868Z,9.00
2023-04-15T10:07:27.628Z,8.70
2023-04-15T10:09:55.285Z,8.60
2023-04-15T10:12:22.954Z,8.70
2023-04-15T10:14:57.175Z,8.60
2023-04-15T10:17:34.395Z,8.00
2023-04-15T10:20:04.036Z,8.20
2023-04-15T10:22:32.342Z,8.00
2023-04-15T10:25:02.866Z,7.80
2023-04-15T10:27:30.638Z,8.50
2023-04-15T10:29:57.750Z,8.00
2023-04-15T10:32:25.917Z,7.70
2023-04-15T10:34:54.848Z,7.50
2023-04-15T10:37:33.981Z,7.70
2023-04-15T10:40:01.124Z,7.40
2023-04-15T10:42:35.164Z,6.70
2023-04-15T10:45:02.088Z,7.10
2023-04-15T10:47:29.144Z,7.00
2023-04-15T10:50:00.550Z,6.60
2023-04-15T10:52:29.203Z,6.10
2023-04-15T10:55:26.598Z,6.70
2023-04-15T10:57:56.363Z,6.70
2023-04-15T11:00:29.105Z,6.50
2023-04-15T11:02:58.640Z,6.30
2023-04-15T11:05:52.095Z,6.20
2023-04-15T11:08:19.524Z,6.50
2023-04-15T11:10:46.416Z,6.30
2023-04-15T11:13:18.713Z,6.20
2023-04-15T11:15:47.215Z,6.10
2023-04-15T11:18:14.073Z,6.20
2023-04-15T11:21:11.044Z,5.70
2023-04-15T11:23:40.006Z,5.80
2023-04-15T11:26:15.635Z,6.00
2023-04-15T11:28:46.440Z,5.90
2023-04-15T11:31:18.046Z,6.00
2023-04-15T11:33:56.835Z,5.30
2023-04-15T11:36:29.626Z,5.40
2023-04-15T11:38:59.687Z,5.50
2023-04-15T11:41:26.612Z,5.40
2023-04-15T11:43:53.714Z,5.10
2023-04-15T11:46:22.072Z,5.00
2023-04-15T11:48:49.027Z,5.30
2023-04-15T11:51:16.220Z,5.30
2023-04-15T11:53:46.193Z,4.90
2023-04-15T11:56:21.692Z,5.00
2023-04-15T11:58:51.998Z,5.30
2023-04-15T12:01:19.098Z,4.80
2023-04-15T12:03:47.582Z,4.60
2023-04-15T12:06:22.794Z,4.30
2023-04-15T12:08:55.954Z,5.10
2023-04-15T12:11:39.372Z,4.40
2023-04-15T12:14:28.724Z,4.40
2023-04-15T12:16:58.901Z,4.20
2023-04-15T12:19:29.098Z,4.50
2023-04-15T12:22:16.447Z,4.30
2023-04-15T12:24:47.169Z,3.90
2023-04-15T12:27:15.696Z,4.40
2023-04-15T12:29:43.425Z,4.10
2023-04-15T12:32:11.952Z,4.20
2023-04-15T12:34:41.509Z,4.50
2023-04-15T12:37:10.458Z,4.10
2023-04-15T12:39:39.926Z,3.80
2023-04-15T12:42:07.792Z,3.90
2023-04-15T12:44:35.851Z,4.10
2023-04-15T12:47:03.371Z,3.90
2023-04-15T12:49:33.020Z,3.90
2023-04-15T12:52:01.386Z,3.70
2023-04-15T12:54:29.407Z,3.20
2023-04-15T12:56:57.051Z,3.20
2023-04-15T12:59:24.617Z,3.70
2023-04-15T13:01:53.549Z,3.20
2023-04-15T13:04:22.079Z,3.60
2023-04-15T13:06:49.625Z,3.40
2023-04-15T13:09:16.747Z,3.20
2023-04-15T13:11:44.200Z,3.10
2023-04-15T13:14:13.947Z,3.30
2023-04-15T13:16:41.681Z,3.50
2023-04-15T13:19:08.792Z,3.00
2023-04-15T13:21:36.489Z,3.40
2023-04-15T13:24:04.536Z,3.00
2023-04-15T13:26:32.142Z,2.80
2023-04-15T13:29:00.874Z,3.10
2023-04-15T13:31:28.162Z,3.00
2023-04-15T13:33:55.242Z,3.10
2023-04-15T13:36:22.601Z,3.20
2023-04-15T13:38:51.381Z,3.00
2023-04-15T13:41:18.722Z,2.90
2023-04-15T13:43:45.803Z,3.00
2023-04-15T13:46:13.007Z,2.60
2023-04-15T13:48:40.164Z,2.80
2023-04-15T13:51:07.087Z,2.80
2023-04-15T13:53:38.251Z,2.90
2023-04-15T13:56:09.580Z,2.90
2023-04-15T13:58:41.123Z,2.80
2023-04-15T14:01:08.249Z,2.60
2023-04-15T14:03:36.565Z,2.30
2023-04-15T14:06:04.359Z,2.40
2023-04-15T14:08:31.813Z,2.50
2023-04-15T14:10:58.848Z,2.30
2023-04-15T14:13:25.757Z,2.60
2023-04-15T14:15:53.085Z,2.20
2023-04-15T14:18:20.195Z,2.30
2023-04-15T14:20:47.262Z,2.30
2023-04-15T14:23:14.311Z,2.30
2023-04-15T14:25:41.290Z,2.30
2023-04-15T14:28:08.168Z,2.30
2023-04-15T14:30:35.447Z,2.50
2023-04-15T14:33:02.780Z,2.20
2023-04-15T14:35:29.880Z,2.30
2023-04-15T14:37:57.198Z,2.40
2023-04-15T14:40:24.613Z,2.30
2023-04-15T14:42:51.605Z,2.10
2023-04-15T14:45:18.640Z,2.30
2023-04-15T14:47:45.633Z,2.10
2023-04-15T14:50:12.544Z,2.20
2023-04-15T14:52:39.761Z,2.10
2023-04-15T14:55:08.015Z,1.70
2023-04-15T14:57:34.969Z,2.10
2023-04-15T15:00:02.303Z,1.90
2023-04-15T15:02:38.398Z,2.50
2023-04-15T15:05:06.853Z,1.90
2023-04-15T15:07:33.986Z,1.80
2023-04-15T15:10:01.004Z,2.00
2023-04-15T15:12:27.886Z,1.70
2023-04-15T15:14:56.066Z,2.00
2023-04-15T15:17:23.057Z,1.60
2023-04-15T15:19:50.083Z,1.70
2023-04-15T15:22:18.884Z,1.80
2023-04-15T15:24:47.139Z,1.60
2023-04-15T15:27:14.010Z,2.10
2023-04-15T15:29:41.034Z,1.90
2023-04-15T15:32:08.156Z,1.60
2023-04-15T15:34:35.028Z,1.90
2023-04-15T15:37:02.022Z,1.90
2023-04-15T15:39:29.129Z,1.60
2023-04-15T15:41:56.296Z,1.70
2023-04-15T15:44:23.099Z,1.70
2023-04-15T15:46:51.266Z,1.70
2023-04-15T15:49:20.019Z,1.70
2023-04-15T15:51:46.953Z,1.70
2023-04-15T15:54:13.925Z,1.90
2023-04-15T15:56:42.260Z,1.40
2023-04-15T15:59:09.187Z,1.50
2023-04-15T16:01:36.151Z,1.60
2023-04-15T16:04:03.449Z,1.70
2023-04-15T16:06:33.838Z,1.80
2023-04-15T16:09:02.263Z,1.70
2023-04-15T16:11:29.695Z,1.50
2023-04-15T16:13:56.701Z,1.70
2023-04-15T16:16:24.693Z,1.70
2023-04-15T16:18:51.712Z,1.60
2023-04-15T16:21:20.916Z,1.60
2023-04-15T16:23:48.196Z,1.40
2023-04-15T16:26:15.247Z,1.70
2023-04-15T16:28:42.160Z,1.40
2023-04-15T16:31:11.400Z,1.40
2023-04-15T16:33:38.986Z,1.60
2023-04-15T16:36:06.243Z,1.30
2023-04-15T16:38:33.376Z,1.40
2023-04-15T16:41:01.734Z,1.70
2023-04-15T16:43:29.411Z,1.50
2023-04-15T16:45:56.667Z,1.50
2023-04-15T16:48:24.031Z,1.50
2023-04-15T16:50:50.900Z,1.50
2023-04-15T16:53:18.859Z,1.20
2023-04-15T16:55:46.820Z,1.30
2023-04-15T16:58:14.147Z,1.30
2023-04-15T17:00:42.699Z,1.30
2023-04-15T17:03:10.017Z,1.50
2023-04-15T17:05:38.702Z,1.40
2023-04-15T17:08:06.197Z,1.50
2023-04-15T17:10:33.255Z,1.50
2023-04-15T17:13:00.509Z,1.40
2023-04-15T17:15:27.599Z,1.40
2023-04-15T17:17:54.791Z,1.50
2023-04-15T17:20:21.922Z,1.30
2023-04-15T17:22:49.133Z,1.20
2023-04-15T17:25:16.196Z,1.20
2023-04-15T17:27:43.815Z,1.30
2023-04-15T17:30:11.014Z,1.70
2023-04-15T17:32:40.103Z,1.50
2023-04-15T17:35:07.870Z,1.70
2023-04-15T17:37:35.912Z,1.50
2023-04-15T17:40:04.034Z,1.60
2023-04-15T17:42:31.635Z,1.30
2023-04-15T17:44:58.587Z,1.30
2023-04-15T17:47:25.760Z,1.40
2023-04-15T17:49:52.700Z,1.20
2023-04-15T17:52:19.597Z,1.40
2023-04-15T17:54:47.286Z,1.50
2023-04-15T17:57:14.193Z,1.30
2023-04-15T17:59:45.166Z,1.20
2023-04-15T18:02:12.201Z,1.20
2023-04-15T18:04:40.072Z,1.40
2023-04-15T18:07:07.137Z,1.40
2023-04-15T18:09:34.024Z,1.20
2023-04-15T18:12:02.201Z,1.60
2023-04-15T18:14:34.550Z,1.10
2023-04-15T18:17:03.331Z,1.10
2023-04-15T18:19:31.051Z,1.30
2023-04-15T18:22:00.536Z,1.40
2023-04-15T18:24:28.360Z,1.20
2023-04-15T18:26:55.288Z,1.20
2023-04-15T18:29:22.500Z,1.10
2023-04-15T18:31:49.514Z,1.10
2023-04-15T18:34:16.368Z,1.70
2023-04-15T18:36:43.387Z,1.10
2023-04-15T18:39:10.628Z,1.10
2023-04-15T18:41:37.515Z,1.80
2023-04-15T18:44:04.690Z,1.20
2023-04-15T18:46:31.600Z,1.10
2023-04-15T18:48:58.541Z,1.10
2023-04-15T18:51:26.071Z,1.20
2023-04-15T18:53:52.969Z,1.10
2023-04-15T18:56:19.929Z,1.40
2023-04-15T18:59:08.562Z,1.20
2023-04-15T19:01:34.597Z,1.10
2023-04-15T19:04:07.838Z,1.30
2023-04-15T19:06:34.861Z,1.20
2023-04-15T19:09:02.654Z,1.40
2023-04-15T19:11:29.696Z,1.00
2023-04-15T19:13:56.708Z,1.00
2023-04-15T19:16:23.609Z,1.30
2023-04-15T19:18:50.755Z,1.30
2023-04-15T19:21:17.858Z,1.10
2023-04-15T19:23:44.930Z,1.10
2023-04-15T19:26:12.368Z,0.90
2023-04-15T19:28:39.530Z,1.10
2023-04-15T19:31:06.922Z,1.20
2023-04-15T19:33:34.541Z,0.90
2023-04-15T19:36:04.371Z,1.20
2023-04-15T19:38:33.034Z,1.20
2023-04-15T19:40:59.993Z,1.20
2023-04-15T19:43:27.437Z,1.10
2023-04-15T19:45:55.136Z,1.10
2023-04-15T19:48:24.712Z,1.30
2023-04-15T19:50:51.849Z,1.20
2023-04-15T19:53:18.796Z,1.10
2023-04-15T19:55:47.284Z,1.00
2023-04-15T19:58:14.435Z,1.30
2023-04-15T20:00:45.277Z,1.20
2023-04-15T20:03:12.354Z,0.80
2023-04-15T20:05:39.675Z,1.00
2023-04-15T20:08:07.024Z,1.10
2023-04-15T20:10:34.535Z,0.80
2023-04-15T20:13:01.422Z,1.10
2023-04-15T20:15:28.366Z,1.00
2023-04-15T20:17:55.342Z,0.90
2023-04-15T20:20:22.897Z,1.20
2023-04-15T20:22:49.798Z,1.10
2023-04-15T20:25:16.970Z,1.10
2023-04-15T20:27:44.626Z,1.10
2023-04-15T20:30:12.080Z,1.10
2023-04-15T20:32:39.156Z,1.10
2023-04-15T20:35:07.072Z,1.20
2023-04-15T20:37:34.403Z,1.00
2023-04-15T20:40:02.354Z,1.20
2023-04-15T20:42:34.579Z,1.30
2023-04-15T20:45:02.374Z,0.90
2023-04-15T20:47:29.946Z,1.20
2023-04-15T20:49:57.639Z,1.30
2023-04-15T20:52:24.646Z,1.10
2023-04-15T20:54:51.984Z,1.30
2023-04-15T20:57:20.476Z,1.10
2023-04-15T20:59:47.628Z,0.80
2023-04-15T21:02:14.848Z,1.10
2023-04-15T21:04:42.272Z,1.00
2023-04-15T21:07:10.302Z,1.20
2023-04-15T21:09:41.762Z,1.10
2023-04-15T21:12:10.023Z,1.40
2023-04-15T21:14:37.885Z,0.90
2023-04-15T21:17:10.040Z,1.40
2023-04-15T21:19:39.144Z,1.30
2023-04-15T21:22:07.178Z,1.10
2023-04-15T21:24:34.708Z,1.00
2023-04-15T21:27:02.134Z,0.80
2023-04-15T21:29:31.124Z,0.90
2023-04-15T21:31:58.434Z,1.00
2023-04-15T21:34:25.714Z,1.00
2023-04-15T21:36:52.720Z,1.00
2023-04-15T21:39:20.031Z,1.10
2023-04-15T21:41:48.024Z,1.00
2023-04-15T21:44:15.236Z,0.90
2023-04-15T21:46:45.961Z,1.00
2023-04-15T21:49:13.965Z,1.00
2023-04-15T21:51:41.075Z,1.20
2023-04-15T21:54:08.188Z,1.20
2023-04-15T21:56:35.517Z,1.10
2023-04-15T21:59:02.418Z,0.80
2023-04-15T22:01:29.446Z,1.20
2023-04-15T22:03:56.917Z,0.90
2023-04-15T22:06:24.000Z,1.00
2023-04-15T22:08:56.826Z,1.00
2023-04-15T22:11:30.606Z,1.20
2023-04-15T22:13:58.766Z,1.00
2023-04-15T22:16:26.649Z,1.30
2023-04-15T22:18:54.742Z,1.20
2023-04-15T22:21:21.971Z,1.10
2023-04-15T22:23:49.820Z,0.90
2023-04-15T22:26:16.963Z,1.50
2023-04-15T22:28:43.919Z,1.00
2023-04-15T22:31:10.989Z,1.10
2023-04-15T22:33:38.947Z,1.00
2023-04-15T22:36:06.753Z,1.30
2023-04-15T22:38:33.947Z,1.40
2023-04-15T22:41:00.897Z,1.10
2023-04-15T22:43:27.950Z,0.90
2023-04-15T22:45:55.415Z,0.90
2023-04-15T22:48:23.120Z,0.60
2023-04-15T22:50:50.217Z,1.10
2023-04-15T22:53:18.066Z,0.90
2023-04-15T22:55:52.014Z,0.90
2023-04-15T22:58:18.914Z,1.00
2023-04-15T23:00:46.276Z,0.90
2023-04-15T23:03:13.519Z,1.30
2023-04-15T23:05:41.537Z,1.00
2023-04-15T23:08:09.371Z,1.00
2023-04-15T23:10:36.817Z,1.40
2023-04-15T23:13:03.694Z,1.00
2023-04-15T23:15:31.020Z,1.30
2023-04-15T23:17:58.021Z,1.10
2023-04-15T23:20:25.114Z,1.10
2023-04-15T23:22:52.061Z,1.10
2023-04-15T23:25:22.407Z,1.20
2023-04-15T23:27:49.327Z,0.90
2023-04-15T23:30:16.564Z,1.00
2023-04-15T23:32:43.709Z,1.00
2023-04-15T23:35:10.970Z,0.90
2023-04-15T23:37:37.929Z,1.10
2023-04-15T23:40:05.593Z,1.00
2023-04-15T23:42:32.472Z,0.90
2023-04-15T23:44:59.394Z,0.90
2023-04-15T23:47:26.452Z,1.00
2023-04-15T23:49:53.575Z,1.00
2023-04-15T23:52:20.633Z,1.00
2023-04-15T23:54:47.668Z,1.10
2023-04-15T23:57:14.618Z,1.00
2023-04-15T23:59:41.457Z,1.00
